sensor_id;sensor_type;location;lat;lon;timestamp;pressure;altitude;pressure_sealevel;temperature;humidity
16793;BME280;8513;42.662;23.350;2023-05-10T00:02:07;95167.03;;;11.68;69.35
16793;BME280;8513;42.662;23.350;2023-05-10T00:04:33;95162.53;;;11.61;68.90
16793;BME280;8513;42.662;23.350;2023-05-10T00:06:58;95171.63;;;11.66;68.99
16793;BME280;8513;42.662;23.350;2023-05-10T00:09:24;95172.13;;;11.70;68.88
16793;BME280;8513;42.662;23.350;2023-05-10T00:11:49;95169.50;;;11.70;68.18
16793;BME280;8513;42.662;23.350;2023-05-10T00:14:15;95170.69;;;11.50;69.32
16793;BME280;8513;42.662;23.350;2023-05-10T00:16:41;95161.16;;;11.57;69.00
16793;BME280;8513;42.662;23.350;2023-05-10T00:19:06;95161.66;;;11.52;69.49
16793;BME280;8513;42.662;23.350;2023-05-10T00:21:32;95160.28;;;11.48;69.38
16793;BME280;8513;42.662;23.350;2023-05-10T00:23:58;95166.38;;;11.48;68.72
16793;BME280;8513;42.662;23.350;2023-05-10T00:26:24;95163.19;;;11.37;69.88
16793;BME280;8513;42.662;23.350;2023-05-10T00:28:49;95162.94;;;11.48;69.11
16793;BME280;8513;42.662;23.350;2023-05-10T00:31:15;95159.09;;;11.42;68.85
16793;BME280;8513;42.662;23.350;2023-05-10T00:33:40;95160.09;;;11.41;68.87
16793;BME280;8513;42.662;23.350;2023-05-10T00:36:06;95165.50;;;11.40;68.67
16793;BME280;8513;42.662;23.350;2023-05-10T00:38:33;95165.06;;;11.44;68.48
16793;BME280;8513;42.662;23.350;2023-05-10T00:40:58;95156.03;;;11.29;68.94
16793;BME280;8513;42.662;23.350;2023-05-10T00:43:24;95146.63;;;11.26;68.77
16793;BME280;8513;42.662;23.350;2023-05-10T00:45:49;95156.25;;;11.36;69.05
16793;BME280;8513;42.662;23.350;2023-05-10T00:48:15;95151.47;;;11.31;68.73
16793;BME280;8513;42.662;23.350;2023-05-10T00:50:40;95138.50;;;11.20;69.40
16793;BME280;8513;42.662;23.350;2023-05-10T00:53:07;95152.34;;;11.22;69.77
16793;BME280;8513;42.662;23.350;2023-05-10T00:55:32;95146.63;;;11.26;69.09
16793;BME280;8513;42.662;23.350;2023-05-10T00:57:58;95145.00;;;11.25;68.98
16793;BME280;8513;42.662;23.350;2023-05-10T01:00:23;95151.84;;;11.18;69.19
16793;BME280;8513;42.662;23.350;2023-05-10T01:02:49;95153.91;;;11.33;68.92
16793;BME280;8513;42.662;23.350;2023-05-10T01:05:15;95152.22;;;11.23;69.36
16793;BME280;8513;42.662;23.350;2023-05-10T01:07:40;95146.69;;;11.35;68.91
16793;BME280;8513;42.662;23.350;2023-05-10T01:10:07;95143.06;;;11.36;68.31
16793;BME280;8513;42.662;23.350;2023-05-10T01:12:38;95148.56;;;11.42;67.49
16793;BME280;8513;42.662;23.350;2023-05-10T01:15:06;95148.69;;;11.15;68.47
16793;BME280;8513;42.662;23.350;2023-05-10T01:17:34;95141.56;;;11.07;69.37
16793;BME280;8513;42.662;23.350;2023-05-10T01:20:00;95141.88;;;11.04;69.24
16793;BME280;8513;42.662;23.350;2023-05-10T01:22:41;95143.13;;;11.00;69.44
16793;BME280;8513;42.662;23.350;2023-05-10T01:33:52;95135.16;;;11.10;68.04
16793;BME280;8513;42.662;23.350;2023-05-10T01:36:42;95137.72;;;11.01;68.70
16793;BME280;8513;42.662;23.350;2023-05-10T01:39:15;95125.47;;;11.10;68.02
16793;BME280;8513;42.662;23.350;2023-05-10T01:49:55;95115.91;;;10.55;67.25
16793;BME280;8513;42.662;23.350;2023-05-10T01:52:33;95116.06;;;10.54;67.45
16793;BME280;8513;42.662;23.350;2023-05-10T01:55:02;95123.88;;;10.46;68.03
16793;BME280;8513;42.662;23.350;2023-05-10T01:57:33;95116.13;;;10.44;67.74
16793;BME280;8513;42.662;23.350;2023-05-10T01:59:59;95118.63;;;10.46;67.76
16793;BME280;8513;42.662;23.350;2023-05-10T02:02:27;95125.31;;;10.40;67.29
16793;BME280;8513;42.662;23.350;2023-05-10T02:04:54;95109.75;;;10.19;66.13
16793;BME280;8513;42.662;23.350;2023-05-10T02:07:23;95119.84;;;10.24;66.56
16793;BME280;8513;42.662;23.350;2023-05-10T02:09:49;95122.72;;;10.30;65.54
16793;BME280;8513;42.662;23.350;2023-05-10T02:12:16;95128.97;;;10.20;65.88
16793;BME280;8513;42.662;23.350;2023-05-10T02:14:42;95130.06;;;10.27;64.86
16793;BME280;8513;42.662;23.350;2023-05-10T02:17:09;95124.44;;;9.84;64.56
16793;BME280;8513;42.662;23.350;2023-05-10T02:19:38;95124.97;;;9.88;63.58
16793;BME280;8513;42.662;23.350;2023-05-10T02:22:05;95119.50;;;9.71;62.04
16793;BME280;8513;42.662;23.350;2023-05-10T02:24:32;95136.44;;;9.49;62.19
16793;BME280;8513;42.662;23.350;2023-05-10T02:26:59;95131.63;;;9.45;61.88
16793;BME280;8513;42.662;23.350;2023-05-10T02:29:27;95130.63;;;9.46;61.12
16793;BME280;8513;42.662;23.350;2023-05-10T02:31:54;95146.53;;;9.35;60.80
16793;BME280;8513;42.662;23.350;2023-05-10T02:34:26;95131.91;;;9.32;58.99
16793;BME280;8513;42.662;23.350;2023-05-10T02:36:53;95139.94;;;9.31;61.25
16793;BME280;8513;42.662;23.350;2023-05-10T02:39:19;95132.88;;;9.31;60.84
16793;BME280;8513;42.662;23.350;2023-05-10T02:41:46;95135.63;;;9.39;60.02
16793;BME280;8513;42.662;23.350;2023-05-10T02:44:15;95129.56;;;9.19;59.74
16793;BME280;8513;42.662;23.350;2023-05-10T02:46:41;95126.13;;;9.19;60.96
16793;BME280;8513;42.662;23.350;2023-05-10T02:49:07;95126.94;;;9.39;60.83
16793;BME280;8513;42.662;23.350;2023-05-10T02:51:35;95118.09;;;9.30;60.13
16793;BME280;8513;42.662;23.350;2023-05-10T02:54:07;95124.50;;;9.08;61.45
16793;BME280;8513;42.662;23.350;2023-05-10T02:56:36;95117.63;;;8.88;61.84
16793;BME280;8513;42.662;23.350;2023-05-10T02:59:05;95118.56;;;9.06;62.43
16793;BME280;8513;42.662;23.350;2023-05-10T03:01:30;95117.84;;;9.23;61.17
16793;BME280;8513;42.662;23.350;2023-05-10T03:03:56;95119.38;;;9.16;61.83
16793;BME280;8513;42.662;23.350;2023-05-10T03:06:21;95122.16;;;9.15;61.72
16793;BME280;8513;42.662;23.350;2023-05-10T03:08:46;95118.00;;;9.12;61.01
16793;BME280;8513;42.662;23.350;2023-05-10T03:13:53;95133.88;;;8.81;62.46
16793;BME280;8513;42.662;23.350;2023-05-10T03:16:26;95127.13;;;9.08;62.16
16793;BME280;8513;42.662;23.350;2023-05-10T03:19:08;95132.66;;;9.05;62.29
16793;BME280;8513;42.662;23.350;2023-05-10T03:21:37;95135.25;;;8.95;62.71
16793;BME280;8513;42.662;23.350;2023-05-10T03:24:08;95132.34;;;9.08;62.50
16793;BME280;8513;42.662;23.350;2023-05-10T03:26:34;95132.47;;;9.26;61.59
16793;BME280;8513;42.662;23.350;2023-05-10T03:29:01;95130.63;;;9.46;61.00
16793;BME280;8513;42.662;23.350;2023-05-10T03:31:27;95136.56;;;9.48;60.50
16793;BME280;8513;42.662;23.350;2023-05-10T03:33:53;95139.63;;;9.43;60.32
16793;BME280;8513;42.662;23.350;2023-05-10T03:36:19;95143.09;;;9.44;60.34
16793;BME280;8513;42.662;23.350;2023-05-10T03:38:44;95136.47;;;9.30;59.93
16793;BME280;8513;42.662;23.350;2023-05-10T03:41:10;95143.22;;;9.33;59.96
16793;BME280;8513;42.662;23.350;2023-05-10T03:43:36;95144.66;;;9.17;59.91
16793;BME280;8513;42.662;23.350;2023-05-10T03:46:05;95145.03;;;9.32;59.91
16793;BME280;8513;42.662;23.350;2023-05-10T03:48:34;95140.19;;;9.37;60.92
16793;BME280;8513;42.662;23.350;2023-05-10T03:51:00;95142.22;;;9.53;60.13
16793;BME280;8513;42.662;23.350;2023-05-10T03:53:25;95145.97;;;9.50;60.25
16793;BME280;8513;42.662;23.350;2023-05-10T03:55:52;95138.47;;;9.65;60.32
16793;BME280;8513;42.662;23.350;2023-05-10T03:58:17;95148.22;;;9.83;59.88
16793;BME280;8513;42.662;23.350;2023-05-10T04:00:43;95155.28;;;9.72;60.51
16793;BME280;8513;42.662;23.350;2023-05-10T04:03:13;95151.53;;;9.85;60.24
16793;BME280;8513;42.662;23.350;2023-05-10T04:05:39;95154.44;;;9.82;60.37
16793;BME280;8513;42.662;23.350;2023-05-10T04:08:05;95160.09;;;9.87;60.09
16793;BME280;8513;42.662;23.350;2023-05-10T04:10:31;95157.91;;;9.82;59.47
16793;BME280;8513;42.662;23.350;2023-05-10T04:12:56;95157.06;;;9.82;59.39
16793;BME280;8513;42.662;23.350;2023-05-10T04:15:22;95158.47;;;9.76;59.59
16793;BME280;8513;42.662;23.350;2023-05-10T04:17:47;95160.41;;;9.74;59.88
16793;BME280;8513;42.662;23.350;2023-05-10T04:20:13;95165.91;;;9.81;59.23
16793;BME280;8513;42.662;23.350;2023-05-10T04:22:38;95165.38;;;9.77;59.68
16793;BME280;8513;42.662;23.350;2023-05-10T04:25:05;95160.13;;;9.77;59.81
16793;BME280;8513;42.662;23.350;2023-05-10T04:27:31;95164.38;;;9.88;59.59
16793;BME280;8513;42.662;23.350;2023-05-10T04:29:57;95167.81;;;9.88;60.32
16793;BME280;8513;42.662;23.350;2023-05-10T04:32:22;95157.41;;;9.97;60.00
16793;BME280;8513;42.662;23.350;2023-05-10T04:34:48;95163.69;;;9.86;60.31
16793;BME280;8513;42.662;23.350;2023-05-10T04:37:14;95163.69;;;9.86;60.41
16793;BME280;8513;42.662;23.350;2023-05-10T04:39:39;95170.09;;;9.74;61.29
16793;BME280;8513;42.662;23.350;2023-05-10T04:42:05;95170.34;;;9.80;61.71
16793;BME280;8513;42.662;23.350;2023-05-10T04:44:34;95165.88;;;9.90;60.90
16793;BME280;8513;42.662;23.350;2023-05-10T04:46:59;95165.34;;;9.87;60.38
16793;BME280;8513;42.662;23.350;2023-05-10T04:49:25;95166.00;;;9.99;60.14
16793;BME280;8513;42.662;23.350;2023-05-10T04:51:50;95161.44;;;10.01;59.60
16793;BME280;8513;42.662;23.350;2023-05-10T04:54:16;95162.53;;;9.98;60.45
16793;BME280;8513;42.662;23.350;2023-05-10T04:56:41;95159.19;;;10.06;60.00
16793;BME280;8513;42.662;23.350;2023-05-10T04:59:06;95154.88;;;10.05;59.90
16793;BME280;8513;42.662;23.350;2023-05-10T05:01:32;95152.81;;;10.08;59.61
16793;BME280;8513;42.662;23.350;2023-05-10T05:03:58;95157.50;;;10.14;58.99
16793;BME280;8513;42.662;23.350;2023-05-10T05:06:24;95157.75;;;10.21;59.06
16793;BME280;8513;42.662;23.350;2023-05-10T05:08:50;95166.84;;;10.27;59.06
16793;BME280;8513;42.662;23.350;2023-05-10T05:11:18;95163.53;;;10.25;59.44
16793;BME280;8513;42.662;23.350;2023-05-10T05:13:44;95166.69;;;10.38;58.75
16793;BME280;8513;42.662;23.350;2023-05-10T05:16:09;95165.97;;;10.36;59.06
16793;BME280;8513;42.662;23.350;2023-05-10T05:18:36;95171.84;;;10.30;59.59
16793;BME280;8513;42.662;23.350;2023-05-10T05:21:02;95174.25;;;10.41;59.28
16793;BME280;8513;42.662;23.350;2023-05-10T05:23:27;95168.78;;;10.34;60.23
16793;BME280;8513;42.662;23.350;2023-05-10T05:25:53;95173.63;;;9.92;60.92
16793;BME280;8513;42.662;23.350;2023-05-10T05:28:22;95176.81;;;9.86;61.79
16793;BME280;8513;42.662;23.350;2023-05-10T05:30:48;95188.00;;;9.98;61.23
16793;BME280;8513;42.662;23.350;2023-05-10T05:33:14;95186.81;;;10.10;60.01
16793;BME280;8513;42.662;23.350;2023-05-10T05:35:41;95187.22;;;10.15;60.23
16793;BME280;8513;42.662;23.350;2023-05-10T05:38:06;95188.59;;;10.19;60.41
16793;BME280;8513;42.662;23.350;2023-05-10T05:40:31;95178.22;;;10.18;60.71
16793;BME280;8513;42.662;23.350;2023-05-10T05:42:57;95183.03;;;10.32;60.29
16793;BME280;8513;42.662;23.350;2023-05-10T05:45:22;95182.88;;;10.33;60.82
16793;BME280;8513;42.662;23.350;2023-05-10T05:47:48;95173.78;;;10.28;60.84
16793;BME280;8513;42.662;23.350;2023-05-10T05:50:14;95186.78;;;10.29;60.86
16793;BME280;8513;42.662;23.350;2023-05-10T05:52:39;95181.25;;;10.13;61.61
16793;BME280;8513;42.662;23.350;2023-05-10T05:55:05;95187.78;;;10.19;61.52
16793;BME280;8513;42.662;23.350;2023-05-10T05:57:30;95200.50;;;10.13;61.70
16793;BME280;8513;42.662;23.350;2023-05-10T05:59:56;95200.41;;;10.05;62.41
16793;BME280;8513;42.662;23.350;2023-05-10T06:02:21;95193.47;;;10.04;63.25
16793;BME280;8513;42.662;23.350;2023-05-10T06:04:47;95199.72;;;10.03;63.06
16793;BME280;8513;42.662;23.350;2023-05-10T06:07:12;95187.09;;;10.07;62.88
16793;BME280;8513;42.662;23.350;2023-05-10T06:09:38;95200.06;;;10.18;63.89
16793;BME280;8513;42.662;23.350;2023-05-10T06:12:03;95197.88;;;10.13;63.82
16793;BME280;8513;42.662;23.350;2023-05-10T06:14:29;95196.78;;;10.06;63.98
16793;BME280;8513;42.662;23.350;2023-05-10T06:16:54;95197.00;;;10.23;63.20
16793;BME280;8513;42.662;23.350;2023-05-10T06:19:20;95197.28;;;10.20;62.97
16793;BME280;8513;42.662;23.350;2023-05-10T06:21:45;95193.69;;;10.21;63.31
16793;BME280;8513;42.662;23.350;2023-05-10T06:24:10;95202.69;;;10.28;63.21
16793;BME280;8513;42.662;23.350;2023-05-10T06:26:36;95195.19;;;10.33;62.63
16793;BME280;8513;42.662;23.350;2023-05-10T06:29:01;95206.41;;;10.35;62.27
16793;BME280;8513;42.662;23.350;2023-05-10T06:31:27;95201.81;;;10.37;61.49
16793;BME280;8513;42.662;23.350;2023-05-10T06:33:53;95210.16;;;10.50;61.38
16793;BME280;8513;42.662;23.350;2023-05-10T06:36:18;95203.22;;;10.31;61.79
16793;BME280;8513;42.662;23.350;2023-05-10T06:38:44;95217.72;;;10.26;62.07
16793;BME280;8513;42.662;23.350;2023-05-10T06:41:09;95206.00;;;10.30;62.22
16793;BME280;8513;42.662;23.350;2023-05-10T06:43:34;95203.78;;;10.35;61.86
16793;BME280;8513;42.662;23.350;2023-05-10T06:46:00;95212.91;;;10.31;61.36
16793;BME280;8513;42.662;23.350;2023-05-10T06:48:25;95205.69;;;10.43;60.81
16793;BME280;8513;42.662;23.350;2023-05-10T06:50:51;95202.19;;;10.42;60.80
16793;BME280;8513;42.662;23.350;2023-05-10T06:53:16;95209.25;;;10.42;60.87
16793;BME280;8513;42.662;23.350;2023-05-10T06:55:42;95208.03;;;10.36;60.52
16793;BME280;8513;42.662;23.350;2023-05-10T06:58:07;95215.28;;;10.24;60.31
16793;BME280;8513;42.662;23.350;2023-05-10T07:00:33;95211.31;;;10.10;60.56
16793;BME280;8513;42.662;23.350;2023-05-10T07:02:58;95207.22;;;10.26;60.99
16793;BME280;8513;42.662;23.350;2023-05-10T07:05:24;95209.59;;;10.29;60.10
16793;BME280;8513;42.662;23.350;2023-05-10T07:07:49;95215.28;;;10.14;60.90
16793;BME280;8513;42.662;23.350;2023-05-10T07:10:15;95220.94;;;10.29;60.58
16793;BME280;8513;42.662;23.350;2023-05-10T07:12:40;95218.84;;;10.33;58.96
16793;BME280;8513;42.662;23.350;2023-05-10T07:15:07;95226.38;;;10.08;60.43
16793;BME280;8513;42.662;23.350;2023-05-10T07:17:32;95214.75;;;10.11;60.73
16793;BME280;8513;42.662;23.350;2023-05-10T07:19:58;95219.44;;;10.17;60.22
16793;BME280;8513;42.662;23.350;2023-05-10T07:22:25;95223.44;;;10.21;59.72
16793;BME280;8513;42.662;23.350;2023-05-10T07:24:50;95222.34;;;10.14;60.17
16793;BME280;8513;42.662;23.350;2023-05-10T07:27:16;95218.50;;;10.08;59.80
16793;BME280;8513;42.662;23.350;2023-05-10T07:29:41;95223.59;;;10.10;60.46
16793;BME280;8513;42.662;23.350;2023-05-10T07:32:07;95226.34;;;10.18;60.13
16793;BME280;8513;42.662;23.350;2023-05-10T07:34:32;95233.50;;;10.26;60.21
16793;BME280;8513;42.662;23.350;2023-05-10T07:36:58;95227.97;;;10.29;59.79
16793;BME280;8513;42.662;23.350;2023-05-10T07:39:24;95234.63;;;10.23;60.06
16793;BME280;8513;42.662;23.350;2023-05-10T07:41:50;95241.38;;;10.26;60.36
16793;BME280;8513;42.662;23.350;2023-05-10T07:44:15;95241.28;;;10.18;60.50
16793;BME280;8513;42.662;23.350;2023-05-10T07:46:43;95250.09;;;10.26;60.63
16793;BME280;8513;42.662;23.350;2023-05-10T07:49:09;95232.16;;;10.22;59.85
16793;BME280;8513;42.662;23.350;2023-05-10T07:51:37;95224.97;;;10.24;59.67
16793;BME280;8513;42.662;23.350;2023-05-10T07:54:03;95241.53;;;10.34;60.54
16793;BME280;8513;42.662;23.350;2023-05-10T07:56:31;95232.63;;;10.45;58.87
16793;BME280;8513;42.662;23.350;2023-05-10T07:59:01;95237.22;;;10.43;60.12
16793;BME280;8513;42.662;23.350;2023-05-10T08:01:33;95240.78;;;10.51;58.82
16793;BME280;8513;42.662;23.350;2023-05-10T08:04:00;95241.53;;;10.34;58.63
16793;BME280;8513;42.662;23.350;2023-05-10T08:06:25;95244.31;;;10.32;59.58
16793;BME280;8513;42.662;23.350;2023-05-10T08:08:55;95247.88;;;10.41;59.44
16793;BME280;8513;42.662;23.350;2023-05-10T08:11:21;95243.22;;;10.53;58.59
16793;BME280;8513;42.662;23.350;2023-05-10T08:13:48;95242.22;;;10.64;58.20
16793;BME280;8513;42.662;23.350;2023-05-10T08:16:15;95232.19;;;10.49;58.22
16793;BME280;8513;42.662;23.350;2023-05-10T08:18:40;95230.38;;;10.50;58.59
16793;BME280;8513;42.662;23.350;2023-05-10T08:21:06;95235.56;;;10.69;58.35
16793;BME280;8513;42.662;23.350;2023-05-10T08:23:32;95239.75;;;10.62;58.10
16793;BME280;8513;42.662;23.350;2023-05-10T08:25:57;95233.41;;;10.55;57.85
16793;BME280;8513;42.662;23.350;2023-05-10T08:28:23;95247.38;;;10.55;57.70
16793;BME280;8513;42.662;23.350;2023-05-10T08:30:50;95243.69;;;10.48;58.06
16793;BME280;8513;42.662;23.350;2023-05-10T08:33:17;95245.22;;;10.51;58.37
16793;BME280;8513;42.662;23.350;2023-05-10T08:35:42;95248.28;;;10.36;58.41
16793;BME280;8513;42.662;23.350;2023-05-10T08:38:07;95238.81;;;10.53;58.68
16793;BME280;8513;42.662;23.350;2023-05-10T08:40:33;95245.81;;;10.63;58.32
16793;BME280;8513;42.662;23.350;2023-05-10T08:43:08;95247.28;;;10.75;59.96
16793;BME280;8513;42.662;23.350;2023-05-10T08:45:41;95238.84;;;10.71;59.89
16793;BME280;8513;42.662;23.350;2023-05-10T08:48:09;95247.38;;;10.83;61.01
16793;BME280;8513;42.662;23.350;2023-05-10T08:50:40;95242.13;;;10.83;61.25
16793;BME280;8513;42.662;23.350;2023-05-10T08:53:11;95251.00;;;11.00;61.11
16793;BME280;8513;42.662;23.350;2023-05-10T08:55:37;95240.03;;;11.04;60.63
16793;BME280;8513;42.662;23.350;2023-05-10T08:58:04;95244.03;;;11.09;60.20
16793;BME280;8513;42.662;23.350;2023-05-10T09:00:31;95241.31;;;11.00;60.41
16793;BME280;8513;42.662;23.350;2023-05-10T09:02:58;95244.56;;;11.12;60.41
16793;BME280;8513;42.662;23.350;2023-05-10T09:05:24;95247.72;;;11.16;59.69
16793;BME280;8513;42.662;23.350;2023-05-10T09:07:49;95240.03;;;11.04;59.38
16793;BME280;8513;42.662;23.350;2023-05-10T09:10:15;95249.88;;;11.02;60.45
16793;BME280;8513;42.662;23.350;2023-05-10T09:12:41;95249.97;;;11.11;59.98
16793;BME280;8513;42.662;23.350;2023-05-10T09:15:07;95251.16;;;10.98;58.92
16793;BME280;8513;42.662;23.350;2023-05-10T09:17:34;95245.63;;;10.74;60.19
16793;BME280;8513;42.662;23.350;2023-05-10T09:20:00;95238.41;;;10.76;60.96
16793;BME280;8513;42.662;23.350;2023-05-10T09:22:27;95238.03;;;10.71;61.32
16793;BME280;8513;42.662;23.350;2023-05-10T09:25:09;95229.72;;;10.75;59.83
16793;BME280;8513;42.662;23.350;2023-05-10T09:27:37;95233.50;;;10.91;60.72
16793;BME280;8513;42.662;23.350;2023-05-10T09:30:03;95235.56;;;10.87;60.34
16793;BME280;8513;42.662;23.350;2023-05-10T09:32:41;95228.28;;;10.81;58.60
16793;BME280;8513;42.662;23.350;2023-05-10T09:35:13;95233.69;;;10.79;60.27
16793;BME280;8513;42.662;23.350;2023-05-10T09:38:07;95235.44;;;10.89;59.70
16793;BME280;8513;42.662;23.350;2023-05-10T09:40:34;95223.44;;;11.04;59.54
16793;BME280;8513;42.662;23.350;2023-05-10T09:43:06;95229.13;;;10.99;59.06
16793;BME280;8513;42.662;23.350;2023-05-10T09:45:34;95230.78;;;11.00;60.12
16793;BME280;8513;42.662;23.350;2023-05-10T09:48:01;95225.28;;;11.12;58.61
16793;BME280;8513;42.662;23.350;2023-05-10T09:50:28;95229.72;;;11.11;58.60
16793;BME280;8513;42.662;23.350;2023-05-10T09:52:56;95218.69;;;11.08;58.87
16793;BME280;8513;42.662;23.350;2023-05-10T09:55:37;95228.00;;;11.20;58.33
16793;BME280;8513;42.662;23.350;2023-05-10T09:58:03;95218.47;;;11.19;57.21
16793;BME280;8513;42.662;23.350;2023-05-10T10:00:35;95221.41;;;11.16;57.21
16793;BME280;8513;42.662;23.350;2023-05-10T10:03:01;95221.41;;;11.16;58.16
16793;BME280;8513;42.662;23.350;2023-05-10T10:05:34;95218.38;;;11.11;58.18
16793;BME280;8513;42.662;23.350;2023-05-10T10:08:02;95208.19;;;11.25;57.09
16793;BME280;8513;42.662;23.350;2023-05-10T10:10:29;95216.28;;;11.32;57.16
16793;BME280;8513;42.662;23.350;2023-05-10T10:12:55;95209.03;;;10.98;57.58
16793;BME280;8513;42.662;23.350;2023-05-10T10:15:21;95200.09;;;11.09;57.48
16793;BME280;8513;42.662;23.350;2023-05-10T10:17:48;95203.66;;;11.18;57.32
16793;BME280;8513;42.662;23.350;2023-05-10T10:20:15;95198.53;;;11.34;57.24
16793;BME280;8513;42.662;23.350;2023-05-10T10:22:41;95194.22;;;11.33;56.45
16793;BME280;8513;42.662;23.350;2023-05-10T10:25:10;95195.97;;;11.42;56.32
16793;BME280;8513;42.662;23.350;2023-05-10T10:27:44;95204.63;;;11.35;56.71
16793;BME280;8513;42.662;23.350;2023-05-10T10:30:27;95203.09;;;11.50;56.59
16793;BME280;8513;42.662;23.350;2023-05-10T10:33:06;95196.72;;;11.53;56.38
16793;BME280;8513;42.662;23.350;2023-05-10T10:35:36;95199.28;;;11.44;57.15
16793;BME280;8513;42.662;23.350;2023-05-10T10:38:01;95200.09;;;11.27;56.83
16793;BME280;8513;42.662;23.350;2023-05-10T10:40:32;95209.13;;;11.24;56.74
16793;BME280;8513;42.662;23.350;2023-05-10T10:43:24;95209.50;;;11.12;57.57
16793;BME280;8513;42.662;23.350;2023-05-10T10:48:38;95210.03;;;11.33;56.47
16793;BME280;8513;42.662;23.350;2023-05-10T10:51:04;95200.34;;;11.34;56.82
16793;BME280;8513;42.662;23.350;2023-05-10T10:53:29;95194.28;;;11.59;56.35
16793;BME280;8513;42.662;23.350;2023-05-10T10:56:09;95201.28;;;11.68;55.87
16793;BME280;8513;42.662;23.350;2023-05-10T10:58:37;95204.56;;;11.70;55.31
16793;BME280;8513;42.662;23.350;2023-05-10T11:01:14;95205.28;;;11.55;55.86
16793;BME280;8513;42.662;23.350;2023-05-10T11:03:40;95215.41;;;11.67;55.35
16793;BME280;8513;42.662;23.350;2023-05-10T11:06:06;95208.88;;;11.72;55.66
16793;BME280;8513;42.662;23.350;2023-05-10T11:08:34;95206.69;;;11.67;55.33
16793;BME280;8513;42.662;23.350;2023-05-10T11:11:06;95199.28;;;11.70;55.36
16793;BME280;8513;42.662;23.350;2023-05-10T11:16:40;95198.50;;;11.96;54.18
16793;BME280;8513;42.662;23.350;2023-05-10T11:19:03;95198.41;;;12.06;54.32
16793;BME280;8513;42.662;23.350;2023-05-10T11:21:33;95198.28;;;12.16;54.18
16793;BME280;8513;42.662;23.350;2023-05-10T11:24:00;95211.50;;;12.24;54.25
16793;BME280;8513;42.662;23.350;2023-05-10T11:26:31;95202.75;;;12.23;54.31
16793;BME280;8513;42.662;23.350;2023-05-10T11:28:57;95211.38;;;12.33;54.18
16793;BME280;8513;42.662;23.350;2023-05-10T11:31:24;95212.41;;;12.41;54.42
16793;BME280;8513;42.662;23.350;2023-05-10T11:33:56;95209.91;;;12.31;53.83
16793;BME280;8513;42.662;23.350;2023-05-10T11:36:26;95203.69;;;12.06;53.99
16793;BME280;8513;42.662;23.350;2023-05-10T11:38:53;95199.44;;;11.87;54.87
16793;BME280;8513;42.662;23.350;2023-05-10T11:41:20;95207.06;;;11.72;55.38
16793;BME280;8513;42.662;23.350;2023-05-10T11:43:50;95208.41;;;11.76;54.66
16793;BME280;8513;42.662;23.350;2023-05-10T11:46:19;95210.00;;;11.69;55.26
16793;BME280;8513;42.662;23.350;2023-05-10T11:48:46;95208.31;;;11.68;55.52
16793;BME280;8513;42.662;23.350;2023-05-10T11:51:12;95211.56;;;11.80;55.27
16793;BME280;8513;42.662;23.350;2023-05-10T11:53:37;95202.66;;;11.55;56.15
16793;BME280;8513;42.662;23.350;2023-05-10T11:56:09;95203.41;;;11.73;55.82
16793;BME280;8513;42.662;23.350;2023-05-10T11:58:36;95195.69;;;11.72;55.62
16793;BME280;8513;42.662;23.350;2023-05-10T12:01:03;95200.34;;;11.78;55.86
16793;BME280;8513;42.662;23.350;2023-05-10T12:03:30;95199.88;;;12.00;55.13
16793;BME280;8513;42.662;23.350;2023-05-10T12:05:56;95208.09;;;11.79;55.27
16793;BME280;8513;42.662;23.350;2023-05-10T12:08:23;95202.47;;;11.74;55.64
16793;BME280;8513;42.662;23.350;2023-05-10T12:10:50;95196.00;;;11.95;55.54
16793;BME280;8513;42.662;23.350;2023-05-10T12:13:16;95190.78;;;12.03;55.58
16793;BME280;8513;42.662;23.350;2023-05-10T12:15:42;95183.00;;;12.19;55.07
16793;BME280;8513;42.662;23.350;2023-05-10T12:18:12;95196.53;;;12.24;54.30
16793;BME280;8513;42.662;23.350;2023-05-10T12:20:39;95188.56;;;12.16;54.39
16793;BME280;8513;42.662;23.350;2023-05-10T12:23:05;95188.88;;;12.13;54.13
16793;BME280;8513;42.662;23.350;2023-05-10T12:25:32;95187.22;;;12.12;54.44
16793;BME280;8513;42.662;23.350;2023-05-10T12:28:00;95181.47;;;12.08;54.40
16793;BME280;8513;42.662;23.350;2023-05-10T12:30:29;95179.00;;;12.15;54.56
16793;BME280;8513;42.662;23.350;2023-05-10T12:33:15;95185.91;;;12.16;54.20
16793;BME280;8513;42.662;23.350;2023-05-10T12:35:47;95176.06;;;12.18;54.55
16793;BME280;8513;42.662;23.350;2023-05-10T12:38:29;95173.13;;;12.29;53.70
16793;BME280;8513;42.662;23.350;2023-05-10T12:41:02;95168.66;;;12.22;53.34
16793;BME280;8513;42.662;23.350;2023-05-10T12:43:28;95174.56;;;12.16;53.33
16793;BME280;8513;42.662;23.350;2023-05-10T12:45:53;95167.28;;;12.09;53.87
16793;BME280;8513;42.662;23.350;2023-05-10T12:48:19;95163.00;;;12.08;53.91
16793;BME280;8513;42.662;23.350;2023-05-10T12:50:46;95163.78;;;12.01;54.61
16793;BME280;8513;42.662;23.350;2023-05-10T12:53:13;95170.91;;;12.08;54.68
16793;BME280;8513;42.662;23.350;2023-05-10T12:55:41;95153.63;;;12.14;54.03
16793;BME280;8513;42.662;23.350;2023-05-10T12:58:06;95160.50;;;12.07;53.93
16793;BME280;8513;42.662;23.350;2023-05-10T13:00:31;95148.16;;;12.07;54.33
16793;BME280;8513;42.662;23.350;2023-05-10T13:02:57;95151.47;;;12.09;54.48
16793;BME280;8513;42.662;23.350;2023-05-10T13:05:22;95145.16;;;12.02;54.83
16793;BME280;8513;42.662;23.350;2023-05-10T13:07:48;95142.06;;;12.07;54.99
16793;BME280;8513;42.662;23.350;2023-05-10T13:10:13;95148.91;;;12.26;54.63
16793;BME280;8513;42.662;23.350;2023-05-10T13:12:39;95139.34;;;12.25;54.51
16793;BME280;8513;42.662;23.350;2023-05-10T13:15:05;95144.81;;;12.31;54.80
16793;BME280;8513;42.662;23.350;2023-05-10T13:17:30;95134.06;;;12.25;55.01
16793;BME280;8513;42.662;23.350;2023-05-10T13:19:56;95144.19;;;12.38;54.70
16793;BME280;8513;42.662;23.350;2023-05-10T13:22:21;95134.22;;;12.23;54.87
16793;BME280;8513;42.662;23.350;2023-05-10T13:24:46;95136.81;;;12.15;54.54
16793;BME280;8513;42.662;23.350;2023-05-10T13:27:12;95133.47;;;12.05;54.92
16793;BME280;8513;42.662;23.350;2023-05-10T13:29:37;95137.25;;;12.02;54.97